createdAt,value
2023-02-11T00:01:32.136Z,18.30
2023-02-11T00:04:01.699Z,19.00
2023-02-11T00:06:32.579Z,18.92
2023-02-11T00:09:00.699Z,18.45
2023-02-11T00:11:30.436Z,18.77
2023-02-11T00:14:15.648Z,18.52
2023-02-11T00:16:43.494Z,18.30
2023-02-11T00:19:11.431Z,18.30
2023-02-11T00:21:40.250Z,18.15
2023-02-11T00:24:07.978Z,17.33
2023-02-11T00:26:36.275Z,18.20
2023-02-11T00:29:05.506Z,18.27
2023-02-11T00:31:34.408Z,17.23
2023-02-11T00:34:02.523Z,17.67
2023-02-11T00:36:30.974Z,17.88
2023-02-11T00:38:59.742Z,18.38
2023-02-11T00:41:29.137Z,16.95
2023-02-11T00:43:57.310Z,17.67
2023-02-11T00:46:25.343Z,17.52
2023-02-11T00:48:57.562Z,17.25
2023-02-11T00:51:28.176Z,16.83
2023-02-11T00:53:56.142Z,17.93
2023-02-11T00:56:24.143Z,17.02
2023-02-11T00:58:52.030Z,17.50
2023-02-11T01:01:20.463Z,17.05
2023-02-11T01:03:48.457Z,16.80
2023-02-11T01:06:16.890Z,17.45
2023-02-11T01:08:45.531Z,16.80
2023-02-11T01:11:17.854Z,17.48
2023-02-11T01:13:48.920Z,17.60
2023-02-11T01:16:18.315Z,13.05
2023-02-11T01:18:47.556Z,17.00
2023-02-11T01:21:18.448Z,17.00
2023-02-11T01:23:46.179Z,16.85
2023-02-11T01:26:14.173Z,16.83
2023-02-11T01:28:42.239Z,16.58
2023-02-11T01:31:10.064Z,16.73
2023-02-11T01:33:38.026Z,16.38
2023-02-11T01:36:08.759Z,16.52
2023-02-11T01:38:37.284Z,15.68
2023-02-11T01:41:09.765Z,15.73
2023-02-11T01:43:46.544Z,15.50
2023-02-11T01:46:31.385Z,14.68
2023-02-11T01:49:18.660Z,15.07
2023-02-11T01:52:02.062Z,16.17
2023-02-11T01:55:01.058Z,14.70
2023-02-11T01:57:34.420Z,15.05
2023-02-11T02:00:24.113Z,15.32
2023-02-11T02:03:31.813Z,14.75
2023-02-11T02:06:12.456Z,15.73
2023-02-11T02:09:18.563Z,16.03
2023-02-11T02:11:46.292Z,15.40
2023-02-11T02:14:15.840Z,15.63
2023-02-11T02:16:44.560Z,15.23
2023-02-11T02:20:03.111Z,16.17
2023-02-11T02:23:05.788Z,15.50
2023-02-11T02:26:23.894Z,16.00
2023-02-11T02:29:24.967Z,15.43
2023-02-11T02:32:35.840Z,15.93
2023-02-11T02:35:36.420Z,16.33
2023-02-11T02:38:30.265Z,15.40
2023-02-11T02:41:13.069Z,16.08
2023-02-11T02:43:48.369Z,16.23
2023-02-11T02:46:27.645Z,15.75
2023-02-11T02:48:57.264Z,16.75
2023-02-11T02:52:03.734Z,15.77
2023-02-11T02:55:09.363Z,15.82
2023-02-11T02:58:54.170Z,15.00
2023-02-11T03:01:55.151Z,14.93
2023-02-11T03:05:02.539Z,16.00
2023-02-11T03:07:55.145Z,14.73
2023-02-11T03:10:34.781Z,15.55
2023-02-11T03:13:04.532Z,15.27
2023-02-11T03:15:43.229Z,14.48
2023-02-11T03:18:17.531Z,15.40
2023-02-11T03:20:50.687Z,15.20
2023-02-11T03:23:29.943Z,14.73
2023-02-11T03:26:08.757Z,15.85
2023-02-11T03:29:04.522Z,15.02
2023-02-11T03:31:51.228Z,15.00
2023-02-11T03:34:33.255Z,13.98
2023-02-11T03:37:14.613Z,14.52
2023-02-11T03:39:59.861Z,15.05
2023-02-11T03:42:38.241Z,14.60
2023-02-11T03:45:12.357Z,14.68
2023-02-11T03:47:47.198Z,14.65
2023-02-11T03:50:16.581Z,14.70
2023-02-11T03:52:46.492Z,15.15
2023-02-11T03:55:18.569Z,14.63
2023-02-11T03:57:47.725Z,14.35
2023-02-11T04:00:16.127Z,14.70
2023-02-11T04:02:44.747Z,15.00
2023-02-11T04:05:16.464Z,15.13
2023-02-11T04:07:44.481Z,14.10
2023-02-11T04:10:13.033Z,14.27
2023-02-11T04:12:41.016Z,15.15
2023-02-11T04:15:09.752Z,14.55
2023-02-11T04:17:37.646Z,14.45
2023-02-11T04:20:05.817Z,15.00
2023-02-11T04:22:33.768Z,14.73
2023-02-11T04:25:01.600Z,13.93
2023-02-11T04:27:29.365Z,14.95
2023-02-11T04:29:57.095Z,14.68
2023-02-11T04:32:24.935Z,14.57
2023-02-11T04:34:54.241Z,15.00
2023-02-11T04:37:22.478Z,14.35
2023-02-11T04:39:50.208Z,15.00
2023-02-11T04:42:17.877Z,14.52
2023-02-11T04:44:45.609Z,14.55
2023-02-11T04:47:15.397Z,15.02
2023-02-11T04:49:43.379Z,14.30
2023-02-11T04:52:11.455Z,14.75
2023-02-11T04:54:40.549Z,14.52
2023-02-11T04:57:08.428Z,14.70
2023-02-11T04:59:36.101Z,14.57
2023-02-11T05:02:04.243Z,13.73
2023-02-11T05:04:32.164Z,14.23
2023-02-11T05:07:00.053Z,14.30
2023-02-11T05:09:27.809Z,14.48
2023-02-11T05:11:56.150Z,13.45
2023-02-11T05:14:23.935Z,13.63
2023-02-11T05:16:51.757Z,14.25
2023-02-11T05:19:19.758Z,13.73
2023-02-11T05:22:01.467Z,13.85
2023-02-11T05:24:32.042Z,14.13
2023-02-11T05:27:00.599Z,13.43
2023-02-11T05:29:28.606Z,12.63
2023-02-11T05:31:56.518Z,14.07
2023-02-11T05:34:24.224Z,13.90
2023-02-11T05:36:54.808Z,14.23
2023-02-11T05:39:22.598Z,14.23
2023-02-11T05:41:50.377Z,15.50
2023-02-11T05:44:18.224Z,14.10
2023-02-11T05:46:46.258Z,14.07
2023-02-11T05:49:14.171Z,14.10
2023-02-11T05:51:42.076Z,15.60
2023-02-11T05:54:10.753Z,15.55
2023-02-11T05:56:38.529Z,15.82
2023-02-11T05:59:06.615Z,16.00
2023-02-11T06:01:34.300Z,16.30
2023-02-11T06:04:05.052Z,15.52
2023-02-11T06:06:32.852Z,16.33
2023-02-11T06:09:00.652Z,16.80
2023-02-11T06:11:28.450Z,16.92
2023-02-11T06:13:56.228Z,16.90
2023-02-11T06:16:24.539Z,17.42
2023-02-11T06:18:52.404Z,17.15
2023-02-11T06:21:20.392Z,17.27
2023-02-11T06:23:49.144Z,17.55
2023-02-11T06:26:20.450Z,17.05
2023-02-11T06:28:48.739Z,17.25
2023-02-11T06:31:17.281Z,17.77
2023-02-11T06:33:45.218Z,18.08
2023-02-11T06:36:19.550Z,17.50
2023-02-11T06:38:48.410Z,17.80
2023-02-11T06:41:20.248Z,17.70
2023-02-11T06:43:48.814Z,17.88
2023-02-11T06:46:16.862Z,17.70
2023-02-11T06:48:45.123Z,17.90
2023-02-11T06:51:14.883Z,18.38
2023-02-11T06:53:46.168Z,17.65
2023-02-11T06:56:22.430Z,18.38
2023-02-11T06:58:55.467Z,17.63
2023-02-11T07:01:25.934Z,18.20
2023-02-11T07:03:54.618Z,15.00
2023-02-11T07:06:27.722Z,18.98
2023-02-11T07:08:56.433Z,19.10
2023-02-11T07:11:29.127Z,19.83
2023-02-11T07:14:03.877Z,19.27
2023-02-11T07:16:33.001Z,19.38
2023-02-11T07:19:01.309Z,19.58
2023-02-11T07:21:29.925Z,19.58
2023-02-11T07:23:57.700Z,20.42
2023-02-11T07:26:29.082Z,20.92
2023-02-11T07:31:29.190Z,18.58
2023-02-11T07:34:00.477Z,19.67
2023-02-11T07:36:31.846Z,19.65
2023-02-11T07:39:00.300Z,20.38
2023-02-11T07:41:28.440Z,21.48
2023-02-11T07:43:56.511Z,20.95
2023-02-11T07:46:27.758Z,20.70
2023-02-11T07:48:56.225Z,22.60
2023-02-11T07:51:29.378Z,20.92
2023-02-11T07:53:59.661Z,22.33
2023-02-11T07:56:29.512Z,22.55
2023-02-11T07:59:01.842Z,22.90
2023-02-11T08:01:31.110Z,23.45
2023-02-11T08:04:01.190Z,21.92
2023-02-11T08:06:33.494Z,21.55
2023-02-11T08:09:10.678Z,23.20
2023-02-11T08:11:38.494Z,21.95
2023-02-11T08:14:06.186Z,21.70
2023-02-11T08:16:36.840Z,22.40
2023-02-11T08:19:10.388Z,22.00
2023-02-11T08:21:39.449Z,21.48
2023-02-11T08:24:07.962Z,23.65
2023-02-11T08:26:36.543Z,22.77
2023-02-11T08:29:10.872Z,23.63
2023-02-11T08:31:42.299Z,23.92
2023-02-11T08:36:41.607Z,22.48
2023-02-11T08:39:19.668Z,24.63
2023-02-11T08:41:50.929Z,23.27
2023-02-11T08:44:20.352Z,17.33
2023-02-11T08:46:49.064Z,23.67
2023-02-11T08:49:17.575Z,23.90
2023-02-11T08:51:45.965Z,24.58
2023-02-11T08:54:33.680Z,24.70
2023-02-11T08:57:02.306Z,24.95
2023-02-11T08:59:39.918Z,24.15
2023-02-11T09:02:12.900Z,24.95
2023-02-11T09:04:41.198Z,24.15
2023-02-11T09:07:09.110Z,24.40
2023-02-11T09:09:36.851Z,23.63
2023-02-11T09:12:05.302Z,22.27
2023-02-11T09:14:33.150Z,22.70
2023-02-11T09:17:00.992Z,21.80
2023-02-11T09:19:28.968Z,21.98
2023-02-11T09:21:56.959Z,22.38
2023-02-11T09:24:24.876Z,22.25
2023-02-11T09:26:52.688Z,22.08
2023-02-11T09:29:20.774Z,21.40
2023-02-11T09:31:48.871Z,22.50
2023-02-11T09:34:16.900Z,21.75
2023-02-11T09:36:44.696Z,21.98
2023-02-11T09:39:17.346Z,21.95
2023-02-11T09:42:30.905Z,22.38
2023-02-11T09:45:00.543Z,20.88
2023-02-11T09:47:47.228Z,21.25
2023-02-11T09:50:30.398Z,20.92
2023-02-11T09:53:25.319Z,21.05
2023-02-11T09:55:57.144Z,19.65
2023-02-11T09:58:39.905Z,21.33
2023-02-11T10:01:44.603Z,21.10
2023-02-11T10:05:15.664Z,21.10
2023-02-11T10:08:20.176Z,20.15
2023-02-11T10:10:59.944Z,19.50
2023-02-11T10:13:33.351Z,19.75
2023-02-11T10:16:31.234Z,19.80
2023-02-11T10:19:36.587Z,21.00
2023-02-11T10:22:45.331Z,18.85
2023-02-11T10:25:24.177Z,18.98
2023-02-11T10:27:55.079Z,17.88
2023-02-11T10:30:59.924Z,17.77
2023-02-11T10:34:00.100Z,16.73
2023-02-11T10:36:33.807Z,16.02
2023-02-11T10:39:17.325Z,16.83
2023-02-11T10:41:55.345Z,16.50
2023-02-11T10:45:02.706Z,17.20
2023-02-11T10:47:37.532Z,16.48
2023-02-11T10:50:38.521Z,16.95
2023-02-11T10:53:26.476Z,12.57
2023-02-11T10:55:57.430Z,16.60
2023-02-11T10:58:54.484Z,15.65
2023-02-11T11:01:24.725Z,14.27
2023-02-11T11:03:53.526Z,13.90
2023-02-11T11:06:33.781Z,12.55
2023-02-11T11:09:02.056Z,12.95
2023-02-11T11:11:30.186Z,12.23
2023-02-11T11:14:03.288Z,12.93
2023-02-11T11:16:36.022Z,11.82
2023-02-11T11:19:07.024Z,13.38
2023-02-11T11:21:49.795Z,12.43
2023-02-11T11:24:40.539Z,12.85
2023-02-11T11:27:21.865Z,12.57
2023-02-11T11:29:55.933Z,12.48
2023-02-11T11:32:33.718Z,12.30
2023-02-11T11:35:09.549Z,11.57
2023-02-11T11:37:38.862Z,12.63
2023-02-11T11:40:32.108Z,13.10
2023-02-11T11:43:14.393Z,12.32
2023-02-11T11:45:59.427Z,12.27
2023-02-11T11:48:38.340Z,12.75
2023-02-11T11:51:11.776Z,13.50
2023-02-11T11:53:58.629Z,12.73
2023-02-11T11:56:35.563Z,12.70
2023-02-11T11:59:17.112Z,13.25
2023-02-11T12:02:25.487Z,12.80
2023-02-11T12:05:13.796Z,14.40
2023-02-11T12:08:08.505Z,13.55
2023-02-11T12:10:51.267Z,14.07
2023-02-11T12:13:27.598Z,13.77
2023-02-11T12:16:33.727Z,14.00
2023-02-11T12:19:24.762Z,14.23
2023-02-11T12:22:02.009Z,13.45
2023-02-11T12:24:56.269Z,13.95
2023-02-11T12:27:51.142Z,13.57
2023-02-11T12:30:39.518Z,13.32
2023-02-11T12:33:26.830Z,13.48
2023-02-11T12:36:55.348Z,13.93
2023-02-11T12:39:51.871Z,13.93
2023-02-11T12:42:56.843Z,13.80
2023-02-11T12:45:51.997Z,13.32
2023-02-11T12:49:04.731Z,13.23
2023-02-11T12:52:03.180Z,13.55
2023-02-11T12:54:44.875Z,13.02
2023-02-11T13:00:25.401Z,12.07
2023-02-11T13:03:17.881Z,13.65
2023-02-11T13:05:59.012Z,13.10
2023-02-11T13:08:50.108Z,12.90
2023-02-11T13:11:19.306Z,13.20
2023-02-11T13:14:12.473Z,13.38
2023-02-11T13:16:50.102Z,13.10
2023-02-11T13:19:44.207Z,12.73
2023-02-11T13:22:49.872Z,13.55
2023-02-11T13:25:48.406Z,12.93
2023-02-11T13:28:56.795Z,13.85
2023-02-11T13:31:27.482Z,13.15
2023-02-11T13:33:55.518Z,13.30
2023-02-11T13:36:32.902Z,13.93
2023-02-11T13:39:05.881Z,14.05
2023-02-11T13:41:39.171Z,12.93
2023-02-11T13:44:09.927Z,13.48
2023-02-11T13:47:01.274Z,13.60
2023-02-11T13:49:54.542Z,13.23
2023-02-11T13:52:28.747Z,13.02
2023-02-11T13:55:13.707Z,13.80
2023-02-11T13:57:42.585Z,13.57
2023-02-11T14:00:35.218Z,13.23
2023-02-11T14:03:56.233Z,13.20
2023-02-11T14:06:47.570Z,13.40
2023-02-11T14:09:17.195Z,13.27
2023-02-11T14:11:46.665Z,13.05
2023-02-11T14:14:28.152Z,14.40
2023-02-11T14:16:59.136Z,14.52
2023-02-11T14:19:45.913Z,13.23
2023-02-11T14:22:44.354Z,13.43
2023-02-11T14:25:26.829Z,13.82
2023-02-11T14:27:59.249Z,12.98
2023-02-11T14:30:56.253Z,13.32
2023-02-11T14:33:52.231Z,13.13
2023-02-11T14:36:53.676Z,12.77
2023-02-11T14:39:47.643Z,13.00
2023-02-11T14:42:27.047Z,13.98
2023-02-11T14:45:11.603Z,13.63
2023-02-11T14:48:14.561Z,14.23
2023-02-11T14:50:49.729Z,13.45
2023-02-11T14:53:43.043Z,12.75
2023-02-11T14:56:26.432Z,12.75
2023-02-11T14:59:02.723Z,12.90
2023-02-11T15:01:35.367Z,12.70
2023-02-11T15:04:06.422Z,13.27
2023-02-11T15:06:49.691Z,14.35
2023-02-11T15:09:29.386Z,13.02
2023-02-11T15:11:58.717Z,13.35
2023-02-11T15:14:34.492Z,13.20
2023-02-11T15:17:07.925Z,13.30
2023-02-11T15:19:41.555Z,13.13
2023-02-11T15:22:21.844Z,12.60
2023-02-11T15:25:14.894Z,13.07
2023-02-11T15:27:48.436Z,12.60
2023-02-11T15:30:22.399Z,14.18
2023-02-11T15:32:59.257Z,13.48
2023-02-11T15:35:31.440Z,13.25
2023-02-11T15:38:00.013Z,13.23
2023-02-11T15:40:33.071Z,13.55
2023-02-11T15:43:10.469Z,12.10
2023-02-11T15:46:01.818Z,12.82
2023-02-11T15:48:42.587Z,12.95
2023-02-11T15:51:35.471Z,14.05
2023-02-11T15:54:22.330Z,16.30
2023-02-11T15:56:59.744Z,15.27
2023-02-11T15:59:38.607Z,14.57
2023-02-11T16:02:32.613Z,15.43
2023-02-11T16:05:09.643Z,13.70
2023-02-11T16:07:46.325Z,15.27
2023-02-11T16:10:30.483Z,14.52
2023-02-11T16:13:25.731Z,14.32
2023-02-11T16:16:02.414Z,14.27
2023-02-11T16:18:52.155Z,14.85
2023-02-11T16:21:42.744Z,16.13
2023-02-11T16:24:28.020Z,14.90
2023-02-11T16:27:06.719Z,14.18
2023-02-11T16:29:37.581Z,15.00
2023-02-11T16:32:20.464Z,15.60
2023-02-11T16:34:49.147Z,19.55
2023-02-11T16:37:17.802Z,14.25
2023-02-11T16:39:45.525Z,13.15
2023-02-11T16:42:13.537Z,13.93
2023-02-11T16:44:41.330Z,13.57
2023-02-11T16:47:24.021Z,13.27
2023-02-11T16:49:52.264Z,12.82
2023-02-11T16:52:21.904Z,13.15
2023-02-11T16:54:50.073Z,12.75
2023-02-11T16:57:26.956Z,12.75
2023-02-11T16:59:56.344Z,13.27
2023-02-11T17:02:31.180Z,17.77
2023-02-11T17:05:06.292Z,22.77
2023-02-11T17:07:34.444Z,18.45
2023-02-11T17:10:02.195Z,19.95
2023-02-11T17:12:30.101Z,19.13
2023-02-11T17:14:57.954Z,18.92
2023-02-11T17:17:25.818Z,16.13
2023-02-11T17:19:53.620Z,16.30
2023-02-11T17:22:21.482Z,16.88
2023-02-11T17:24:49.546Z,15.80
2023-02-11T17:27:17.784Z,15.13
2023-02-11T17:29:45.552Z,15.45
2023-02-11T17:32:13.498Z,15.45
2023-02-11T17:34:41.385Z,15.90
2023-02-11T17:37:09.624Z,15.98
2023-02-11T17:39:39.114Z,16.33
2023-02-11T17:42:08.658Z,16.42
2023-02-11T17:44:37.268Z,16.13
2023-02-11T17:47:05.321Z,17.10
2023-02-11T17:49:33.261Z,16.42
2023-02-11T17:52:00.971Z,15.50
2023-02-11T17:54:28.789Z,15.65
2023-02-11T17:56:58.315Z,16.83
2023-02-11T17:59:28.435Z,15.43
2023-02-11T18:01:56.150Z,16.58
2023-02-11T18:04:24.146Z,15.68
2023-02-11T18:06:53.592Z,15.50
2023-02-11T18:09:21.397Z,16.00
2023-02-11T18:11:50.507Z,17.75
2023-02-11T18:14:22.272Z,18.02
2023-02-11T18:19:21.388Z,15.90
2023-02-11T18:21:50.473Z,17.67
2023-02-11T18:24:18.941Z,20.02
2023-02-11T18:26:46.731Z,19.35
2023-02-11T18:29:14.674Z,19.58
2023-02-11T18:31:42.506Z,20.05
2023-02-11T18:34:11.556Z,23.48
2023-02-11T18:36:39.562Z,27.58
2023-02-11T18:39:07.664Z,20.45
2023-02-11T18:41:35.724Z,20.75
2023-02-11T18:44:04.913Z,18.65
2023-02-11T18:46:33.073Z,20.85
2023-02-11T18:49:01.353Z,21.98
2023-02-11T18:51:31.788Z,22.92
2023-02-11T18:54:01.239Z,23.70
2023-02-11T18:56:29.281Z,24.50
2023-02-11T18:59:01.210Z,22.65
2023-02-11T19:01:31.218Z,23.52
2023-02-11T19:04:03.468Z,22.23
2023-02-11T19:06:37.870Z,21.75
2023-02-11T19:09:17.529Z,21.65
2023-02-11T19:11:51.383Z,20.80
2023-02-11T19:14:31.363Z,19.25
2023-02-11T19:17:04.013Z,17.52
2023-02-11T19:19:35.020Z,17.85
2023-02-11T19:22:08.532Z,16.80
2023-02-11T19:24:38.821Z,16.13
2023-02-11T19:27:06.855Z,15.70
2023-02-11T19:29:35.113Z,14.57
2023-02-11T19:32:05.807Z,14.68
2023-02-11T19:34:40.925Z,14.68
2023-02-11T19:37:12.537Z,15.43
2023-02-11T19:42:12.024Z,15.95
2023-02-11T19:44:39.900Z,17.37
2023-02-11T19:47:07.883Z,18.33
2023-02-11T19:49:36.007Z,19.10
2023-02-11T19:52:04.171Z,19.27
2023-02-11T19:54:31.970Z,18.02
2023-02-11T19:56:59.991Z,19.13
2023-02-11T19:59:27.841Z,18.98
2023-02-11T20:01:55.652Z,18.33
2023-02-11T20:04:25.099Z,17.70
2023-02-11T20:06:53.221Z,17.63
2023-02-11T20:09:22.712Z,18.98
2023-02-11T20:11:50.993Z,19.77
2023-02-11T20:14:19.214Z,20.13
2023-02-11T20:16:49.841Z,19.40
2023-02-11T20:19:21.585Z,18.57
2023-02-11T20:21:53.328Z,19.45
2023-02-11T20:26:51.590Z,18.42
2023-02-11T20:29:19.430Z,19.50
2023-02-11T20:31:49.194Z,19.50
2023-02-11T20:34:18.110Z,19.13
2023-02-11T20:36:52.123Z,18.65
2023-02-11T20:39:22.670Z,18.50
2023-02-11T20:41:52.310Z,17.83
2023-02-11T20:44:23.654Z,17.88
2023-02-11T20:46:54.071Z,16.73
2023-02-11T20:49:24.828Z,15.60
2023-02-11T20:51:53.868Z,15.95
2023-02-11T20:54:23.581Z,14.32
2023-02-11T20:56:55.921Z,14.27
2023-02-11T20:59:24.188Z,13.85
2023-02-11T21:01:55.799Z,12.70
2023-02-11T21:04:27.182Z,13.48
2023-02-11T21:07:01.586Z,12.20
2023-02-11T21:09:32.385Z,10.57
2023-02-11T21:12:01.803Z,12.30
2023-02-11T21:14:30.150Z,12.30
2023-02-11T21:16:58.143Z,11.85
2023-02-11T21:19:26.251Z,12.48
2023-02-11T21:21:55.272Z,13.00
2023-02-11T21:24:23.786Z,12.90
2023-02-11T21:26:51.767Z,12.10
2023-02-11T21:29:19.578Z,13.20
2023-02-11T21:31:47.373Z,15.73
2023-02-11T21:34:16.151Z,16.70
2023-02-11T21:36:45.255Z,18.30
2023-02-11T21:39:14.849Z,18.58
2023-02-11T21:41:42.711Z,19.75
2023-02-11T21:44:11.602Z,19.27
2023-02-11T21:46:39.792Z,18.70
2023-02-11T21:49:07.544Z,18.80
2023-02-11T21:51:35.900Z,19.25
2023-02-11T21:54:04.080Z,18.88
2023-02-11T21:56:34.282Z,18.80
2023-02-11T21:59:02.893Z,21.08
2023-02-11T22:01:35.513Z,19.38
2023-02-11T22:04:04.113Z,23.90
2023-02-11T22:06:34.581Z,25.85
2023-02-11T22:09:05.936Z,25.40
2023-02-11T22:11:34.114Z,22.58
2023-02-11T22:14:02.274Z,23.63
2023-02-11T22:16:30.836Z,20.75
2023-02-11T22:18:58.988Z,17.27
2023-02-11T22:21:26.755Z,15.93
2023-02-11T22:23:55.816Z,15.43
2023-02-11T22:26:26.360Z,14.68
2023-02-11T22:28:54.896Z,14.85
2023-02-11T22:31:27.206Z,15.65
2023-02-11T22:33:56.355Z,15.73
2023-02-11T22:36:36.582Z,15.23
2023-02-11T22:39:11.103Z,15.05
2023-02-11T22:41:41.401Z,13.07
2023-02-11T22:44:10.141Z,12.25
2023-02-11T22:46:38.702Z,12.10
2023-02-11T22:49:07.423Z,12.18
2023-02-11T22:51:35.211Z,11.40
2023-02-11T22:54:06.821Z,11.35
2023-02-11T22:56:35.790Z,11.25
2023-02-11T22:59:07.356Z,11.95
2023-02-11T23:01:35.513Z,12.80
2023-02-11T23:04:06.609Z,12.55
2023-02-11T23:06:35.039Z,13.43
2023-02-11T23:09:08.746Z,12.95
2023-02-11T23:11:36.768Z,12.63
2023-02-11T23:14:05.200Z,12.10
2023-02-11T23:16:34.692Z,11.95
2023-02-11T23:19:08.245Z,12.48
2023-02-11T23:21:38.550Z,12.38
2023-02-11T23:24:12.838Z,12.43
2023-02-11T23:26:42.493Z,12.43
2023-02-11T23:29:11.258Z,13.57
2023-02-11T23:31:43.894Z,13.25
2023-02-11T23:34:14.989Z,13.30
2023-02-11T23:36:44.368Z,13.52
2023-02-11T23:39:15.875Z,14.13
2023-02-11T23:44:12.389Z,13.07
2023-02-11T23:46:40.095Z,14.10
2023-02-11T23:49:07.982Z,16.05
2023-02-11T23:51:36.081Z,15.45
2023-02-11T23:54:04.110Z,16.65
2023-02-11T23:56:31.932Z,15.70
2023-02-11T23:58:59.786Z,16.77
